Time;durP1;ratioP1;P1;durP2;ratioP2;P2;SDS_P1;SDS_P2;PMS_P1;PMS_P2;Temp;Humidity;BMP_temperature;BMP_pressure;BME280_temperature;BME280_humidity;BME280_pressure;Samples;Min_cycle;Max_cycle;Signal;HPM_P1;HPM_P2
2022/10/12 00:01:44;;;;;;;;;;;16.20;69.40;;;;;;5048110;27;89958;-49
2022/10/12 00:04:10;;;;;;;;;;;16.20;69.70;;;;;;5021360;27;90162;-53
2022/10/12 00:06:35;;;;;;;;;;;16.10;69.70;;;;;;5044368;27;88972;-49
2022/10/12 00:09:01;;;;;;;;;;;16.20;69.60;;;;;;5018379;27;91068;-52
2022/10/12 00:11:28;;;;;;;;;;;16.20;69.70;;;;;;5045177;27;89850;-51
2022/10/12 00:13:54;;;;;;;;;;;16.20;69.50;;;;;;5042273;27;93509;-48
2022/10/12 00:16:20;;;;;;;;;;;16.20;69.50;;;;;;5046503;27;89685;-48
2022/10/12 00:18:52;;;;;;;;;;;16.20;69.50;;;;;;5050156;27;91159;-52
2022/10/12 00:21:18;;;;;;;;;;;16.20;69.50;;;;;;5028995;27;90110;-51
2022/10/12 00:23:44;;;;;;;;;;;16.20;69.40;;;;;;5050273;27;90972;-52
2022/10/12 00:26:11;;;;;;;;;;;16.20;69.30;;;;;;5046599;27;90026;-54
2022/10/12 00:28:37;;;;;;;;;;;16.10;69.40;;;;;;5027940;27;90211;-50
2022/10/12 00:31:10;;;;;;;;;;;16.10;70.30;;;;;;5036160;27;89464;-46
2022/10/12 00:33:37;;;;;;;;;;;16.00;69.80;;;;;;5023954;27;91101;-52
2022/10/12 00:36:10;;;;;;;;;;;16.10;69.50;;;;;;5027384;27;90548;-47
2022/10/12 00:38:35;;;;;;;;;;;16.00;69.60;;;;;;5029134;27;90901;-51
2022/10/12 00:41:01;;;;;;;;;;;16.00;69.60;;;;;;5017047;27;90923;-50
2022/10/12 00:43:35;;;;;;;;;;;16.00;69.50;;;;;;5005260;27;89923;-48
2022/10/12 00:46:03;;;;;;;;;;;16.00;69.80;;;;;;5021657;27;89820;-51
2022/10/12 00:48:28;;;;;;;;;;;16.00;69.50;;;;;;5024341;27;89931;-51
2022/10/12 00:50:54;;;;;;;;;;;16.00;69.50;;;;;;5021271;27;93720;-52
2022/10/12 00:53:22;;;;;;;;;;;16.00;69.30;;;;;;5019345;27;90940;-50
2022/10/12 00:55:59;;;;;;;;;;;16.00;69.50;;;;;;5020727;27;89178;-53
2022/10/12 00:58:26;;;;;;;;;;;15.90;69.60;;;;;;5028813;27;89641;-49
2022/10/12 01:00:51;;;;;;;;;;;15.90;69.40;;;;;;5010979;27;89896;-52
2022/10/12 01:03:19;;;;;;;;;;;15.90;69.60;;;;;;5021173;27;91025;-50
2022/10/12 01:05:46;;;;;;;;;;;15.90;69.40;;;;;;5028189;27;89676;-50
2022/10/12 01:08:11;;;;;;;;;;;15.90;69.70;;;;;;5029378;27;92152;-47
2022/10/12 01:10:37;;;;;;;;;;;15.90;69.40;;;;;;5018997;27;89886;-48
2022/10/12 01:13:02;;;;;;;;;;;15.90;69.60;;;;;;5018359;27;90063;-48
2022/10/12 01:15:32;;;;;;;;;;;15.90;69.30;;;;;;5022507;27;89983;-51
2022/10/12 01:17:57;;;;;;;;;;;15.90;69.40;;;;;;5033947;27;90228;-52
2022/10/12 01:20:23;;;;;;;;;;;15.90;69.50;;;;;;5017206;27;89535;-54
2022/10/12 01:23:19;;;;;;;;;;;15.90;69.40;;;;;;4999227;27;92511;-50
2022/10/12 01:25:44;;;;;;;;;;;15.80;69.60;;;;;;5013094;27;91400;-51
2022/10/12 01:28:12;;;;;;;;;;;15.80;69.60;;;;;;5045340;27;91709;-48
2022/10/12 01:30:41;;;;;;;;;;;15.80;69.80;;;;;;5045193;27;90357;-51
2022/10/12 01:33:10;;;;;;;;;;;15.80;69.50;;;;;;5049454;27;89949;-53
2022/10/12 01:35:53;;;;;;;;;;;15.80;69.50;;;;;;5046602;27;89636;-47
2022/10/12 01:38:45;;;;;;;;;;;15.80;69.50;;;;;;5043232;27;90283;-48
2022/10/12 01:41:10;;;;;;;;;;;15.80;69.30;;;;;;5009348;27;95059;-52
2022/10/12 01:43:37;;;;;;;;;;;15.70;69.70;;;;;;5044725;27;92400;-53
2022/10/12 01:46:15;;;;;;;;;;;15.70;69.60;;;;;;5053521;27;89085;-48
2022/10/12 01:48:42;;;;;;;;;;;15.70;69.60;;;;;;5043473;27;90021;-51
2022/10/12 01:51:09;;;;;;;;;;;15.70;69.60;;;;;;5044243;27;91548;-52
2022/10/12 01:53:43;;;;;;;;;;;15.60;69.70;;;;;;5040167;27;92475;-46
2022/10/12 01:56:19;;;;;;;;;;;15.60;69.70;;;;;;5044809;27;89751;-51
2022/10/12 01:58:44;;;;;;;;;;;15.70;69.70;;;;;;5048929;27;95541;-52
2022/10/12 02:01:19;;;;;;;;;;;15.60;69.60;;;;;;5033506;27;91329;-50
2022/10/12 02:03:58;;;;;;;;;;;15.60;69.30;;;;;;5047910;27;89873;-52
2022/10/12 02:06:27;;;;;;;;;;;15.60;69.80;;;;;;5043083;27;89550;-48
2022/10/12 02:09:19;;;;;;;;;;;15.60;69.60;;;;;;5039697;27;91117;-51
2022/10/12 02:11:45;;;;;;;;;;;15.50;70.00;;;;;;5027176;27;89585;-48
2022/10/12 02:14:15;;;;;;;;;;;15.60;69.80;;;;;;5029579;27;94932;-50
2022/10/12 02:16:50;;;;;;;;;;;15.50;69.70;;;;;;5039679;27;93042;-51
2022/10/12 02:19:18;;;;;;;;;;;15.50;69.60;;;;;;5032078;27;91612;-50
2022/10/12 02:21:43;;;;;;;;;;;15.50;69.70;;;;;;5046681;27;90820;-53
2022/10/12 02:24:10;;;;;;;;;;;15.50;69.50;;;;;;5050389;27;89939;-50
2022/10/12 02:26:39;;;;;;;;;;;15.50;69.70;;;;;;5053627;27;90078;-52
2022/10/12 02:29:06;;;;;;;;;;;15.50;69.60;;;;;;5039155;27;89820;-49
2022/10/12 02:31:31;;;;;;;;;;;15.50;69.50;;;;;;5034482;27;92699;-50
2022/10/12 02:34:03;;;;;;;;;;;15.50;69.80;;;;;;5040181;27;89672;-49
2022/10/12 02:36:52;;;;;;;;;;;15.50;69.80;;;;;;5046910;27;89053;-47
2022/10/12 02:39:32;;;;;;;;;;;15.50;69.60;;;;;;5027463;27;90115;-51
2022/10/12 02:42:00;;;;;;;;;;;15.50;69.50;;;;;;5043938;27;89554;-52
2022/10/12 02:44:27;;;;;;;;;;;15.40;69.30;;;;;;5048606;27;90972;-48
2022/10/12 02:46:53;;;;;;;;;;;15.50;69.50;;;;;;5046773;27;90825;-50
2022/10/12 02:49:21;;;;;;;;;;;15.40;69.70;;;;;;5042926;27;89938;-49
2022/10/12 02:51:47;;;;;;;;;;;15.40;69.50;;;;;;5044316;27;91148;-49
2022/10/12 02:54:12;;;;;;;;;;;15.40;69.60;;;;;;5042489;27;89877;-49
2022/10/12 02:56:42;;;;;;;;;;;15.40;69.30;;;;;;5040146;27;90355;-49
2022/10/12 02:59:08;;;;;;;;;;;15.40;69.60;;;;;;5046376;27;90450;-48
2022/10/12 03:01:34;;;;;;;;;;;15.40;69.80;;;;;;5043895;27;89454;-54
2022/10/12 03:03:59;;;;;;;;;;;15.30;69.60;;;;;;5046086;27;90053;-48
2022/10/12 03:06:26;;;;;;;;;;;15.30;69.50;;;;;;5028823;27;95116;-48
2022/10/12 03:08:52;;;;;;;;;;;15.30;69.90;;;;;;5034466;27;97806;-48
2022/10/12 03:11:17;;;;;;;;;;;15.30;69.60;;;;;;5030590;27;94098;-49
2022/10/12 03:13:43;;;;;;;;;;;15.30;69.50;;;;;;5035820;27;93147;-49
2022/10/12 03:16:09;;;;;;;;;;;15.40;69.50;;;;;;5023751;27;90244;-53
2022/10/12 03:18:35;;;;;;;;;;;15.30;69.40;;;;;;5044293;27;90377;-47
2022/10/12 03:21:01;;;;;;;;;;;15.30;69.40;;;;;;5048020;27;92136;-48
2022/10/12 03:23:27;;;;;;;;;;;15.30;69.40;;;;;;5044197;27;89671;-47
2022/10/12 03:25:52;;;;;;;;;;;15.30;69.40;;;;;;5042649;27;88949;-48
2022/10/12 03:28:18;;;;;;;;;;;15.30;69.40;;;;;;5042866;27;90927;-52
2022/10/12 03:30:44;;;;;;;;;;;15.30;69.70;;;;;;5039377;27;90362;-48
2022/10/12 03:33:09;;;;;;;;;;;15.30;69.60;;;;;;5039442;27;91621;-47
2022/10/12 03:35:35;;;;;;;;;;;15.20;69.70;;;;;;5046587;27;91349;-48
2022/10/12 03:38:00;;;;;;;;;;;15.20;69.60;;;;;;5038980;27;92422;-48
2022/10/12 03:40:26;;;;;;;;;;;15.30;69.60;;;;;;5038211;27;90666;-46
2022/10/12 03:42:51;;;;;;;;;;;15.30;69.60;;;;;;5046277;27;91659;-52
2022/10/12 03:45:17;;;;;;;;;;;15.20;69.50;;;;;;5050559;27;89880;-48
2022/10/12 03:47:42;;;;;;;;;;;15.20;69.40;;;;;;5039081;27;90600;-48
2022/10/12 03:50:08;;;;;;;;;;;15.20;69.50;;;;;;5042847;27;89698;-52
2022/10/12 03:52:33;;;;;;;;;;;15.20;69.50;;;;;;5043938;27;89565;-51
2022/10/12 03:54:59;;;;;;;;;;;15.20;69.40;;;;;;5039095;27;90113;-51
2022/10/12 03:57:24;;;;;;;;;;;15.10;69.50;;;;;;5044673;27;91103;-53
2022/10/12 03:59:50;;;;;;;;;;;15.10;69.60;;;;;;5043183;27;90809;-46
2022/10/12 04:02:15;;;;;;;;;;;15.10;69.80;;;;;;5033000;27;90186;-48
2022/10/12 04:04:41;;;;;;;;;;;15.10;69.60;;;;;;5037311;27;92835;-47
2022/10/12 04:07:07;;;;;;;;;;;15.10;69.40;;;;;;5034483;27;93236;-46
2022/10/12 04:09:32;;;;;;;;;;;15.10;69.50;;;;;;5045848;27;90069;-52
2022/10/12 04:11:58;;;;;;;;;;;15.10;69.80;;;;;;5040958;27;89566;-48
2022/10/12 04:14:24;;;;;;;;;;;15.10;69.30;;;;;;5039262;27;89213;-51
2022/10/12 04:16:51;;;;;;;;;;;15.10;69.50;;;;;;5043222;27;90746;-48
2022/10/12 04:19:17;;;;;;;;;;;15.10;69.20;;;;;;5040498;27;90164;-49
2022/10/12 04:21:42;;;;;;;;;;;15.10;70.10;;;;;;5042196;27;95067;-50
2022/10/12 04:24:08;;;;;;;;;;;15.10;69.40;;;;;;5038718;27;89565;-49
2022/10/12 04:26:33;;;;;;;;;;;15.10;69.50;;;;;;5035370;27;94799;-49
2022/10/12 04:28:59;;;;;;;;;;;15.10;69.70;;;;;;5042055;27;91079;-48
2022/10/12 04:31:25;;;;;;;;;;;15.00;69.40;;;;;;5039066;27;89906;-50
2022/10/12 04:33:55;;;;;;;;;;;15.00;69.60;;;;;;5040649;27;89661;-47
2022/10/12 04:36:21;;;;;;;;;;;15.00;69.20;;;;;;5050354;27;90769;-50
2022/10/12 04:38:47;;;;;;;;;;;15.00;69.40;;;;;;5044857;27;94376;-49
2022/10/12 04:41:12;;;;;;;;;;;15.00;69.40;;;;;;5029964;27;91238;-49
2022/10/12 04:43:38;;;;;;;;;;;15.00;69.60;;;;;;5032615;27;92396;-48
2022/10/12 04:46:03;;;;;;;;;;;15.00;69.70;;;;;;5045581;27;92370;-48
2022/10/12 04:48:29;;;;;;;;;;;15.00;69.50;;;;;;5032799;27;90917;-52
2022/10/12 04:50:55;;;;;;;;;;;15.00;69.30;;;;;;5041300;27;90144;-48
2022/10/12 04:53:20;;;;;;;;;;;15.00;69.30;;;;;;5044705;27;89902;-50
2022/10/12 04:55:46;;;;;;;;;;;15.00;69.30;;;;;;5048188;27;93886;-49
2022/10/12 04:58:11;;;;;;;;;;;15.00;69.60;;;;;;5042275;27;91635;-48
2022/10/12 05:00:37;;;;;;;;;;;15.00;69.40;;;;;;5041650;27;91469;-52
2022/10/12 05:03:03;;;;;;;;;;;15.00;69.60;;;;;;5045879;27;92972;-48
2022/10/12 05:05:28;;;;;;;;;;;15.00;69.70;;;;;;5049456;27;95489;-48
2022/10/12 05:07:54;;;;;;;;;;;15.00;69.60;;;;;;5045728;27;90460;-49
2022/10/12 05:10:19;;;;;;;;;;;14.90;70.00;;;;;;5041298;27;90958;-53
2022/10/12 05:12:45;;;;;;;;;;;15.00;70.00;;;;;;5048918;27;90081;-49
2022/10/12 05:15:11;;;;;;;;;;;15.00;69.50;;;;;;5043149;27;90030;-51
2022/10/12 05:17:36;;;;;;;;;;;15.00;69.50;;;;;;5044181;27;93223;-51
2022/10/12 05:20:02;;;;;;;;;;;14.90;69.60;;;;;;5043840;27;92359;-50
2022/10/12 05:22:27;;;;;;;;;;;15.00;69.40;;;;;;5021418;27;89944;-52
2022/10/12 05:24:53;;;;;;;;;;;14.90;69.80;;;;;;5049048;27;91089;-52
2022/10/12 05:27:19;;;;;;;;;;;14.90;69.50;;;;;;5044148;27;89477;-54
2022/10/12 05:29:45;;;;;;;;;;;14.90;69.90;;;;;;5043757;27;90573;-51
2022/10/12 05:32:10;;;;;;;;;;;15.20;70.30;;;;;;5048696;27;89859;-49
2022/10/12 05:34:36;;;;;;;;;;;15.70;69.50;;;;;;5042434;27;91506;-53
2022/10/12 05:37:01;;;;;;;;;;;15.90;68.30;;;;;;5042902;27;90158;-54
2022/10/12 05:39:27;;;;;;;;;;;16.20;66.90;;;;;;5010207;27;92033;-51
2022/10/12 05:41:54;;;;;;;;;;;16.00;66.50;;;;;;5041342;27;90300;-52
2022/10/12 05:44:20;;;;;;;;;;;15.80;67.30;;;;;;5040159;27;89919;-51
2022/10/12 05:46:45;;;;;;;;;;;15.80;67.70;;;;;;5055188;27;90692;-50
2022/10/12 05:49:11;;;;;;;;;;;15.60;68.10;;;;;;5058589;27;89810;-49
2022/10/12 05:51:37;;;;;;;;;;;15.70;68.40;;;;;;5047363;27;89194;-53
2022/10/12 05:54:03;;;;;;;;;;;15.80;68.20;;;;;;5049464;27;91805;-54
2022/10/12 05:56:28;;;;;;;;;;;15.70;67.60;;;;;;5032475;27;90634;-54
2022/10/12 05:58:54;;;;;;;;;;;15.70;68.30;;;;;;5055841;27;90958;-54
2022/10/12 06:01:19;;;;;;;;;;;15.90;68.20;;;;;;5044671;27;94322;-52
2022/10/12 06:03:45;;;;;;;;;;;16.10;67.80;;;;;;5028205;27;90352;-53
2022/10/12 06:06:11;;;;;;;;;;;16.20;67.60;;;;;;5049243;27;90444;-50
2022/10/12 06:08:36;;;;;;;;;;;16.30;67.40;;;;;;5047561;27;89982;-49
2022/10/12 06:11:02;;;;;;;;;;;16.40;67.10;;;;;;5043379;27;89915;-51
2022/10/12 06:13:27;;;;;;;;;;;16.50;67.10;;;;;;5052020;27;90789;-50
2022/10/12 06:15:53;;;;;;;;;;;16.40;67.30;;;;;;5049457;27;90329;-49
2022/10/12 06:18:19;;;;;;;;;;;16.50;67.50;;;;;;5053028;27;89882;-51
2022/10/12 06:20:45;;;;;;;;;;;16.40;67.50;;;;;;5043337;27;93318;-57
2022/10/12 06:23:10;;;;;;;;;;;16.50;67.60;;;;;;5032903;27;92875;-53
2022/10/12 06:25:36;;;;;;;;;;;16.60;68.00;;;;;;5046615;27;90402;-52
2022/10/12 06:28:01;;;;;;;;;;;16.90;67.10;;;;;;5042552;27;89595;-49
2022/10/12 06:30:27;;;;;;;;;;;17.00;66.60;;;;;;5049011;27;89859;-53
2022/10/12 06:32:52;;;;;;;;;;;17.10;66.40;;;;;;5052609;27;91577;-53
2022/10/12 06:35:18;;;;;;;;;;;17.20;66.20;;;;;;5029472;27;90530;-51
2022/10/12 06:37:50;;;;;;;;;;;17.20;65.90;;;;;;5046284;27;90205;-55
2022/10/12 06:40:19;;;;;;;;;;;17.20;65.70;;;;;;5044843;27;89386;-54
2022/10/12 06:42:44;;;;;;;;;;;17.10;66.10;;;;;;5049400;27;93579;-51
2022/10/12 06:45:10;;;;;;;;;;;17.20;66.00;;;;;;5050776;27;91810;-51
2022/10/12 06:47:36;;;;;;;;;;;17.30;66.00;;;;;;5044678;27;91356;-49
2022/10/12 06:50:02;;;;;;;;;;;17.30;65.90;;;;;;5055904;27;89861;-53
2022/10/12 06:52:27;;;;;;;;;;;17.30;65.80;;;;;;5045558;27;90450;-48
2022/10/12 06:54:53;;;;;;;;;;;17.30;65.80;;;;;;5042404;27;89654;-53
2022/10/12 06:57:18;;;;;;;;;;;17.40;66.00;;;;;;5044666;27;91879;-47
2022/10/12 06:59:44;;;;;;;;;;;17.40;65.80;;;;;;5051001;27;89538;-54
2022/10/12 07:02:10;;;;;;;;;;;17.30;65.90;;;;;;5035652;27;90440;-53
2022/10/12 07:04:35;;;;;;;;;;;17.30;65.40;;;;;;5055930;27;89630;-51
2022/10/12 07:07:01;;;;;;;;;;;17.10;65.80;;;;;;5040083;27;90144;-54
2022/10/12 07:09:27;;;;;;;;;;;17.10;65.30;;;;;;5042162;27;90340;-52
2022/10/12 07:11:53;;;;;;;;;;;16.90;65.50;;;;;;5041408;27;95415;-51
2022/10/12 07:14:18;;;;;;;;;;;17.00;66.10;;;;;;5039914;27;93532;-55
2022/10/12 07:16:44;;;;;;;;;;;17.20;65.70;;;;;;5050505;27;89985;-51
2022/10/12 07:19:09;;;;;;;;;;;17.20;65.70;;;;;;5038339;27;91965;-54
2022/10/12 07:21:35;;;;;;;;;;;17.30;65.60;;;;;;5051745;27;91153;-53
2022/10/12 07:24:00;;;;;;;;;;;17.30;65.50;;;;;;5051244;27;90058;-54
2022/10/12 07:26:26;;;;;;;;;;;17.40;65.40;;;;;;5046104;27;89779;-51
2022/10/12 07:28:51;;;;;;;;;;;17.50;65.30;;;;;;5049570;27;89152;-52
2022/10/12 07:31:17;;;;;;;;;;;17.40;64.80;;;;;;5038249;27;90369;-58
2022/10/12 07:33:42;;;;;;;;;;;17.30;64.90;;;;;;5023756;27;93810;-52
2022/10/12 07:36:08;;;;;;;;;;;17.20;64.90;;;;;;5032748;27;90826;-57
2022/10/12 07:38:34;;;;;;;;;;;17.20;65.20;;;;;;5042556;27;91590;-50
2022/10/12 07:41:00;;;;;;;;;;;17.10;65.00;;;;;;5051861;27;89895;-52
2022/10/12 07:43:25;;;;;;;;;;;17.00;65.30;;;;;;5049286;27;90559;-52
2022/10/12 07:45:51;;;;;;;;;;;17.00;65.10;;;;;;5045204;27;90271;-49
2022/10/12 07:48:16;;;;;;;;;;;17.00;66.10;;;;;;5052343;27;89834;-51
2022/10/12 07:50:42;;;;;;;;;;;17.00;65.10;;;;;;5037640;27;91538;-54
2022/10/12 07:53:07;;;;;;;;;;;17.00;65.00;;;;;;5053468;27;89102;-52
2022/10/12 07:55:33;;;;;;;;;;;17.00;64.90;;;;;;5050671;27;91720;-55
2022/10/12 07:57:59;;;;;;;;;;;17.00;64.80;;;;;;5046139;27;91482;-59
2022/10/12 08:00:26;;;;;;;;;;;17.00;65.00;;;;;;5036466;27;92058;-54
2022/10/12 08:02:52;;;;;;;;;;;17.00;65.30;;;;;;5033616;27;97893;-50
2022/10/12 08:05:20;;;;;;;;;;;17.10;65.00;;;;;;5041784;27;90182;-56
2022/10/12 08:07:49;;;;;;;;;;;17.20;64.60;;;;;;5042322;27;94870;-52
2022/10/12 08:10:15;;;;;;;;;;;17.30;65.50;;;;;;5028706;27;94533;-57
2022/10/12 08:12:41;;;;;;;;;;;17.40;64.60;;;;;;5035200;27;90317;-55
2022/10/12 08:15:07;;;;;;;;;;;17.40;64.80;;;;;;5037084;27;89560;-53
2022/10/12 08:17:32;;;;;;;;;;;17.50;64.80;;;;;;5030850;27;89735;-53
2022/10/12 08:19:58;;;;;;;;;;;17.50;64.50;;;;;;5038998;27;89611;-55
2022/10/12 08:22:23;;;;;;;;;;;17.40;64.40;;;;;;5042553;27;90865;-55
2022/10/12 08:24:49;;;;;;;;;;;17.40;64.50;;;;;;5045619;27;91763;-54
2022/10/12 08:27:14;;;;;;;;;;;17.30;64.50;;;;;;5042574;27;90098;-56
2022/10/12 08:29:40;;;;;;;;;;;17.30;64.30;;;;;;5046174;27;90301;-50
2022/10/12 08:32:05;;;;;;;;;;;17.30;64.20;;;;;;5055957;27;89884;-57
2022/10/12 08:34:31;;;;;;;;;;;17.40;64.20;;;;;;5049228;27;89983;-57
2022/10/12 08:36:58;;;;;;;;;;;17.30;64.20;;;;;;5049084;27;90841;-56
2022/10/12 08:39:24;;;;;;;;;;;17.40;63.90;;;;;;5037597;27;90322;-56
2022/10/12 08:42:04;;;;;;;;;;;17.40;63.90;;;;;;5041816;27;89748;-51
2022/10/12 08:44:37;;;;;;;;;;;17.40;64.30;;;;;;5046886;27;90307;-50
2022/10/12 08:47:16;;;;;;;;;;;17.50;64.50;;;;;;5039392;27;90597;-56
2022/10/12 08:49:43;;;;;;;;;;;17.60;64.70;;;;;;5042061;27;91173;-55
2022/10/12 08:52:21;;;;;;;;;;;17.70;64.80;;;;;;5047489;27;91409;-52
2022/10/12 08:54:47;;;;;;;;;;;17.70;65.00;;;;;;5032468;27;90444;-54
2022/10/12 08:57:15;;;;;;;;;;;17.70;65.10;;;;;;5045177;27;90126;-55
2022/10/12 08:59:41;;;;;;;;;;;17.80;65.50;;;;;;5036171;27;91769;-57
2022/10/12 09:02:12;;;;;;;;;;;17.80;65.30;;;;;;5040131;27;89990;-53
2022/10/12 09:04:46;;;;;;;;;;;17.80;65.60;;;;;;5047436;27;89946;-58
2022/10/12 09:07:34;;;;;;;;;;;17.90;65.70;;;;;;5033857;27;91518;-56
2022/10/12 09:09:59;;;;;;;;;;;17.80;65.00;;;;;;5044304;27;90876;-57
2022/10/12 09:12:25;;;;;;;;;;;17.80;65.30;;;;;;5047137;27;89985;-54
2022/10/12 09:14:55;;;;;;;;;;;17.90;65.50;;;;;;5042905;27;91363;-57
2022/10/12 09:17:48;;;;;;;;;;;17.90;65.50;;;;;;5039591;27;90036;-55
2022/10/12 09:20:38;;;;;;;;;;;18.00;65.70;;;;;;5041699;27;91616;-58
2022/10/12 09:23:16;;;;;;;;;;;18.00;65.70;;;;;;5037082;27;90172;-58
2022/10/12 09:25:41;;;;;;;;;;;18.00;65.70;;;;;;5026212;27;90711;-56
2022/10/12 09:28:12;;;;;;;;;;;18.00;65.90;;;;;;5024266;27;90072;-55
2022/10/12 09:30:40;;;;;;;;;;;18.10;66.00;;;;;;5045596;27;91017;-55
2022/10/12 09:33:22;;;;;;;;;;;18.10;65.90;;;;;;5044993;27;89545;-54
2022/10/12 09:35:49;;;;;;;;;;;18.10;66.00;;;;;;5036242;27;93005;-55
2022/10/12 09:38:15;;;;;;;;;;;18.10;65.90;;;;;;5028885;27;90535;-59
2022/10/12 09:40:41;;;;;;;;;;;18.20;66.10;;;;;;5037277;27;91072;-55
2022/10/12 09:43:07;;;;;;;;;;;18.20;66.10;;;;;;5046964;27;90282;-54
2022/10/12 09:45:34;;;;;;;;;;;18.20;66.20;;;;;;5051541;27;91707;-53
2022/10/12 09:48:08;;;;;;;;;;;18.20;66.20;;;;;;5054607;27;90273;-56
2022/10/12 09:50:43;;;;;;;;;;;18.20;66.10;;;;;;5047082;27;90404;-59
2022/10/12 09:53:12;;;;;;;;;;;18.20;66.20;;;;;;5046321;27;90048;-56
2022/10/12 09:55:38;;;;;;;;;;;18.20;66.30;;;;;;5041796;27;92021;-57
2022/10/12 09:58:03;;;;;;;;;;;18.20;66.20;;;;;;5052271;27;91897;-58
2022/10/12 10:00:30;;;;;;;;;;;18.20;65.70;;;;;;5047646;27;96915;-54
2022/10/12 10:02:58;;;;;;;;;;;18.20;65.70;;;;;;5040567;27;90736;-55
2022/10/12 10:05:28;;;;;;;;;;;18.30;65.80;;;;;;5042106;27;91736;-57
2022/10/12 10:08:13;;;;;;;;;;;18.30;65.60;;;;;;5049811;27;90694;-56
2022/10/12 10:10:52;;;;;;;;;;;18.30;65.60;;;;;;5036355;27;90065;-58
2022/10/12 10:13:18;;;;;;;;;;;18.30;65.60;;;;;;5050213;27;90393;-55
2022/10/12 10:15:48;;;;;;;;;;;18.30;65.60;;;;;;5035315;27;96320;-59
2022/10/12 10:18:28;;;;;;;;;;;18.30;65.40;;;;;;5039717;27;89504;-59
2022/10/12 10:20:55;;;;;;;;;;;18.30;65.00;;;;;;5045269;27;90631;-60
2022/10/12 10:23:25;;;;;;;;;;;18.30;64.90;;;;;;5030897;27;89141;-59
2022/10/12 10:25:55;;;;;;;;;;;18.20;64.60;;;;;;5043095;27;89969;-57
2022/10/12 10:28:22;;;;;;;;;;;18.20;64.70;;;;;;5040685;27;89757;-58
2022/10/12 10:31:03;;;;;;;;;;;18.20;64.70;;;;;;5039006;27;93151;-58
2022/10/12 10:33:35;;;;;;;;;;;18.30;64.70;;;;;;5042971;27;91005;-57
2022/10/12 10:36:21;;;;;;;;;;;18.30;64.50;;;;;;5048811;27;90501;-59
2022/10/12 10:38:46;;;;;;;;;;;18.20;64.40;;;;;;5041971;27;92054;-58
2022/10/12 10:41:13;;;;;;;;;;;18.20;64.30;;;;;;5036733;27;90022;-56
2022/10/12 10:43:39;;;;;;;;;;;18.30;64.20;;;;;;5047347;27;90014;-56
2022/10/12 10:46:04;;;;;;;;;;;18.30;64.10;;;;;;5050872;27;90171;-56
2022/10/12 10:48:36;;;;;;;;;;;18.20;63.90;;;;;;5037276;27;89394;-58
2022/10/12 10:51:03;;;;;;;;;;;18.30;64.00;;;;;;5031864;27;90963;-58
2022/10/12 10:53:44;;;;;;;;;;;18.20;63.80;;;;;;5032129;27;91654;-59
2022/10/12 10:56:23;;;;;;;;;;;18.20;63.70;;;;;;5035719;27;96596;-57
2022/10/12 10:59:11;;;;;;;;;;;18.20;63.80;;;;;;5043915;27;89859;-59
2022/10/12 11:01:42;;;;;;;;;;;18.30;64.50;;;;;;5040582;27;91190;-58
2022/10/12 11:04:12;;;;;;;;;;;18.30;63.70;;;;;;5041582;27;89788;-56
2022/10/12 11:06:39;;;;;;;;;;;18.20;63.50;;;;;;5036719;27;91892;-57
2022/10/12 11:09:16;;;;;;;;;;;18.30;63.60;;;;;;5035847;27;89947;-59
2022/10/12 11:11:44;;;;;;;;;;;18.30;63.60;;;;;;5036651;27;96329;-57
2022/10/12 11:14:17;;;;;;;;;;;18.30;63.60;;;;;;5037782;27;89234;-55
2022/10/12 11:16:44;;;;;;;;;;;18.30;63.60;;;;;;5036869;27;89524;-57
2022/10/12 11:19:25;;;;;;;;;;;18.30;63.60;;;;;;5037816;27;90778;-55
2022/10/12 11:21:52;;;;;;;;;;;18.30;63.50;;;;;;5045393;27;91251;-57
2022/10/12 11:24:22;;;;;;;;;;;18.30;63.50;;;;;;5049367;27;91429;-56
2022/10/12 11:27:14;;;;;;;;;;;18.30;63.50;;;;;;5045284;27;94851;-56
2022/10/12 11:29:40;;;;;;;;;;;18.30;63.40;;;;;;5045204;27;96398;-57
2022/10/12 11:32:11;;;;;;;;;;;18.30;63.40;;;;;;5045084;27;90019;-56
2022/10/12 11:34:46;;;;;;;;;;;18.40;63.50;;;;;;5040940;27;89960;-57
2022/10/12 11:37:15;;;;;;;;;;;18.30;63.40;;;;;;5039814;27;89864;-59
2022/10/12 11:39:43;;;;;;;;;;;18.40;63.40;;;;;;5040425;27;90474;-57
2022/10/12 11:42:14;;;;;;;;;;;18.40;63.40;;;;;;5040734;27;91234;-56
2022/10/12 11:44:43;;;;;;;;;;;18.40;63.30;;;;;;5052729;27;89969;-58
2022/10/12 11:47:29;;;;;;;;;;;18.40;63.30;;;;;;5040643;27;97668;-57
2022/10/12 11:49:59;;;;;;;;;;;18.40;63.20;;;;;;5029929;27;90452;-58
2022/10/12 11:52:26;;;;;;;;;;;18.40;63.10;;;;;;5043280;27;90416;-58
2022/10/12 11:54:52;;;;;;;;;;;18.40;63.20;;;;;;5029072;27;95556;-56
2022/10/12 11:57:20;;;;;;;;;;;18.40;63.60;;;;;;5034509;27;90671;-60
2022/10/12 11:59:52;;;;;;;;;;;18.50;64.20;;;;;;5038713;27;89932;-59
2022/10/12 12:02:24;;;;;;;;;;;18.50;64.20;;;;;;5040008;27;93266;-59
2022/10/12 12:04:50;;;;;;;;;;;18.60;64.50;;;;;;5044117;27;89932;-58
2022/10/12 12:07:15;;;;;;;;;;;18.60;64.50;;;;;;5047169;27;90060;-59
2022/10/12 12:09:42;;;;;;;;;;;18.60;64.60;;;;;;5046824;27;90450;-57
2022/10/12 12:12:10;;;;;;;;;;;18.70;64.70;;;;;;5042198;27;93631;-59
2022/10/12 12:14:43;;;;;;;;;;;18.70;64.80;;;;;;5042568;27;92760;-58
2022/10/12 12:17:17;;;;;;;;;;;18.80;64.90;;;;;;5043240;27;89779;-59
2022/10/12 12:19:48;;;;;;;;;;;18.80;64.90;;;;;;5038834;27;89999;-59
2022/10/12 12:22:25;;;;;;;;;;;18.80;64.80;;;;;;5048759;27;91876;-58
2022/10/12 12:25:04;;;;;;;;;;;18.80;64.70;;;;;;5045335;27;90103;-53
2022/10/12 12:27:32;;;;;;;;;;;18.80;64.30;;;;;;5043684;27;90222;-61
2022/10/12 12:30:03;;;;;;;;;;;18.90;64.80;;;;;;5045353;27;90476;-56
2022/10/12 12:32:43;;;;;;;;;;;19.00;64.70;;;;;;5041097;27;90899;-42
2022/10/12 12:35:20;;;;;;;;;;;19.00;65.00;;;;;;5044170;27;90600;-41
2022/10/12 12:37:46;;;;;;;;;;;19.10;65.40;;;;;;5043229;27;91148;-44
2022/10/12 12:40:21;;;;;;;;;;;19.10;65.00;;;;;;5041129;27;90302;-42
2022/10/12 12:42:47;;;;;;;;;;;19.10;64.80;;;;;;5016136;27;90536;-41
2022/10/12 12:45:37;;;;;;;;;;;19.10;64.80;;;;;;5038946;27;91692;-41
2022/10/12 12:48:06;;;;;;;;;;;19.10;64.60;;;;;;5033815;27;94676;-37
2022/10/12 12:50:38;;;;;;;;;;;19.10;64.90;;;;;;5038354;27;89919;-41
2022/10/12 12:53:13;;;;;;;;;;;18.70;65.30;;;;;;5045696;27;89711;-39
2022/10/12 12:55:57;;;;;;;;;;;18.50;65.60;;;;;;5049409;27;90364;-41
2022/10/12 12:58:25;;;;;;;;;;;18.40;65.90;;;;;;5043382;27;90853;-40
2022/10/12 13:01:03;;;;;;;;;;;18.40;66.30;;;;;;5036900;27;93724;-39
2022/10/12 13:03:37;;;;;;;;;;;18.40;66.40;;;;;;5038374;27;91095;-56
2022/10/12 13:06:05;;;;;;;;;;;18.40;67.00;;;;;;5045587;27;90802;-55
2022/10/12 13:08:46;;;;;;;;;;;18.50;67.30;;;;;;5028707;27;90030;-59
2022/10/12 13:11:12;;;;;;;;;;;18.50;66.90;;;;;;5040751;27;90571;-59
2022/10/12 13:13:46;;;;;;;;;;;18.50;66.20;;;;;;5024542;27;94409;-60
2022/10/12 13:16:21;;;;;;;;;;;18.50;65.90;;;;;;5038185;27;90641;-60
2022/10/12 13:18:58;;;;;;;;;;;18.50;65.80;;;;;;5053231;27;89930;-60
2022/10/12 13:21:25;;;;;;;;;;;18.40;65.50;;;;;;5043875;27;89662;-61
2022/10/12 13:24:03;;;;;;;;;;;18.40;65.40;;;;;;5042685;27;91066;-60
2022/10/12 13:26:31;;;;;;;;;;;18.40;65.30;;;;;;5037071;27;89876;-61
2022/10/12 13:28:58;;;;;;;;;;;18.40;65.20;;;;;;5036894;27;90604;-59
2022/10/12 13:31:33;;;;;;;;;;;18.40;65.90;;;;;;5047196;27;89441;-52
2022/10/12 13:34:07;;;;;;;;;;;18.40;66.20;;;;;;5040960;27;90955;-58
2022/10/12 13:36:35;;;;;;;;;;;18.50;67.00;;;;;;5046622;27;90019;-56
2022/10/12 13:39:12;;;;;;;;;;;18.50;66.90;;;;;;5038913;27;95312;-58
2022/10/12 13:41:38;;;;;;;;;;;18.60;66.80;;;;;;5043837;27;90063;-61
2022/10/12 13:44:04;;;;;;;;;;;18.60;67.50;;;;;;5032546;27;90381;-61
2022/10/12 13:46:33;;;;;;;;;;;18.60;67.50;;;;;;5051696;27;89470;-60
2022/10/12 13:48:58;;;;;;;;;;;18.70;67.70;;;;;;5044492;27;91537;-59
2022/10/12 13:51:25;;;;;;;;;;;18.70;67.60;;;;;;5039976;27;90883;-60
2022/10/12 13:53:51;;;;;;;;;;;18.70;67.40;;;;;;5031934;27;92925;-59
2022/10/12 13:56:18;;;;;;;;;;;18.70;67.20;;;;;;5041821;27;91136;-60
2022/10/12 13:58:44;;;;;;;;;;;18.80;67.50;;;;;;5049657;27;89792;-57
2022/10/12 14:01:10;;;;;;;;;;;18.80;67.60;;;;;;5043360;27;89825;-61
2022/10/12 14:03:44;;;;;;;;;;;18.80;67.70;;;;;;5036870;27;94114;-57
2022/10/12 14:06:28;;;;;;;;;;;18.80;67.50;;;;;;5046456;27;91771;-61
2022/10/12 14:08:55;;;;;;;;;;;18.90;67.70;;;;;;5044479;27;91202;-60
2022/10/12 14:11:21;;;;;;;;;;;18.90;67.70;;;;;;5035449;27;90564;-63
2022/10/12 14:14:02;;;;;;;;;;;18.90;67.10;;;;;;5044151;27;91345;-64
2022/10/12 14:16:28;;;;;;;;;;;18.90;67.30;;;;;;5050028;27;89861;-66
2022/10/12 14:18:53;;;;;;;;;;;18.90;67.20;;;;;;5048489;27;93086;-64
2022/10/12 14:21:25;;;;;;;;;;;19.00;67.30;;;;;;5042902;27;90599;-65
2022/10/12 14:23:55;;;;;;;;;;;18.90;67.20;;;;;;5039130;27;90853;-71
2022/10/12 14:26:48;;;;;;;;;;;18.90;66.60;;;;;;5044847;27;89964;-64